Flight Track Log - Related Links

Times and Time Zones

All times are in EDT time to prevent confusion due to time zone crossing. See the N61971 flight status page for this flight to view local times or setup timezone preferences in your user account.

Time Position Orientation Groundspeed Altitude Reporting Facility
EDT Latitude Longitude Course Direction KTS MPH feet Rate Location/Type
Sun 02:50:50 PM 41.5203 -71.5333 236° Southwest 70 81 4,300  Level Boston Center
Sun 02:51:50 PM 41.5092 -71.5553 236° Southwest 76 87 4,500 214 Climbing Boston Center
Sun 02:52:14 PM 41.5058 -71.5667 249° West 81 93 4,600 98 Climbing Boston Center
Sun 02:52:51 PM 41.4967 -71.5853 237° Southwest 95 109 4,600  Level Boston Center
Sun 02:53:15 PM 41.4933 -71.5972 250° West 93 107 4,600  Level Boston Center
Sun 02:53:51 PM 41.4814 -71.6169 231° Southwest 96 110 4,600 -98 Level Boston Center
Sun 02:54:16 PM 41.4772 -71.6261 239° Southwest 95 109 4,500  Descending Boston Center
Sun 02:54:52 PM 41.4667 -71.6461 235° Southwest 95 109 4,600 97 Climbing Boston Center
Sun 02:55:18 PM 41.4619 -71.6539 231° Southwest 93 107 4,600 -90 Level Boston Center
Sun 02:55:59 PM 41.4500 -71.6744 232° Southwest 98 113 4,500  Descending Boston Center
Sun 02:56:19 PM 41.4453 -71.6864 242° Southwest 98 113 4,600 74 Climbing Boston Center
Sun 02:57:20 PM 41.4289 -71.7142 232° Southwest 95 109 4,600 -59 Level Boston Center
Sun 02:58:00 PM 41.4175 -71.7372 237° Southwest 102 117 4,500  Descending Boston Center
Sun 02:58:22 PM 41.4142 -71.7439 236° Southwest 95 109 4,600 98 Climbing Boston Center
Sun 02:59:01 PM 41.4033 -71.7636 234° Southwest 91 105 4,600  Level Boston Center
Sun 02:59:23 PM 41.3978 -71.7731 232° Southwest 90 104 4,600  Level Boston Center
Sun 03:00:02 PM 41.3864 -71.7919 231° Southwest 93 107 4,600  Level Boston Center
Sun 03:00:24 PM 41.3825 -71.8000 237° Southwest 89 102 4,600 -100 Level Boston Center
Sun 03:01:02 PM 41.3728 -71.8156 230° Southwest 85 98 4,500 -97 Descending Boston Center
Sun 03:01:26 PM 41.3681 -71.8253 237° Southwest 86 99 4,500 90 Level Boston Center
Sun 03:02:09 PM 41.3575 -71.8472 237° Southwest 89 102 4,600 98 Climbing Boston Center
Sun 03:02:27 PM 41.3542 -71.8511 221° Southwest 87 100 4,600  Level Boston Center
Sun 03:03:28 PM 41.3389 -71.8819 237° Southwest 92 106 4,600 -55 Level Boston Center
Sun 03:04:17 PM 41.3261 -71.9044 233° Southwest 96 110 4,500 -97 Descending Boston Center
Sun 03:04:30 PM 41.3239 -71.9100 242° Southwest 94 108 4,500  Level Boston Center
Sun 03:05:17 PM 41.3114 -71.9336 235° Southwest 89 102 4,500 98 Level Boston Center
Sun 03:05:31 PM 41.3089 -71.9367 223° Southwest 91 105 4,600  Climbing Boston Center
Sun 03:06:18 PM 41.2972 -71.9597 236° Southwest 89 102 4,500 -98 Descending Boston Center
Sun 03:06:32 PM 41.2931 -71.9644 220° Southwest 88 101 4,500 98 Level Boston Center
Sun 03:07:19 PM 41.2828 -71.9861 238° Southwest 88 101 4,600  Climbing Boston Center
Sun 03:07:34 PM 41.2792 -71.9908 225° Southwest 88 101 4,500 -100 Descending Boston Center
Sun 03:08:19 PM 41.2686 -72.0125 237° Southwest 88 101 4,500 98 Level Boston Center
Sun 03:08:35 PM 41.2678 -72.0136 225° Southwest 88 101 4,600 98 Climbing Boston Center
Sun 03:09:20 PM 41.2539 -72.0414 236° Southwest 92 106 4,600 98 Level Boston Center
Sun 03:09:36 PM 41.2500 -72.0458 221° Southwest 91 105 4,700  Climbing Boston Center
Sun 03:10:27 PM 41.2364 -72.0722 236° Southwest 93 107 4,600  Descending Boston Center
Sun 03:10:37 PM 41.2344 -72.0742 217° Southwest 93 107 4,700 83 Climbing Boston Center
Sun 03:11:39 PM 41.2197 -72.1039 237° Southwest 98 113 4,700 -49 Level Boston Center
Sun 03:12:40 PM 41.2047 -72.1336 236° Southwest 96 110 4,600 -49 Descending Boston Center
Sun 03:13:41 PM 41.1881 -72.1625 233° Southwest 99 114 4,600  Level Boston Center
Sun 03:14:43 PM 41.1744 -72.1897 236° Southwest 89 102 4,600  Level Boston Center
Sun 03:15:44 PM 41.1597 -72.2156 233° Southwest 88 101 4,600  Level Boston Center
Sun 03:16:45 PM 41.1467 -72.2428 238° Southwest 88 101 4,600  Level Boston Center
Sun 03:17:46 PM 41.1336 -72.2689 236° Southwest 87 100 4,600  Level Boston Center
Sun 03:18:48 PM 41.1167 -72.3025 236° Southwest 91 105 4,600  Level Boston Center
Sun 03:19:49 PM 41.1008 -72.3294 232° Southwest 93 107 4,600  Level Boston Center
Sun 03:20:50 PM 41.0856 -72.3558 232° Southwest 90 104 4,600  Level Boston Center
Sun 03:21:51 PM 41.0703 -72.3825 233° Southwest 91 105 4,600  Level Boston Center
Sun 03:22:27 PM 41.0667 -72.4000 255° West 94 108 4,600 -67 Level New York TRACON
Sun 03:23:21 PM 41.0500 -72.4333 236° Southwest 92 106 4,500 -50 Descending New York TRACON
Sun 03:24:27 PM 41.0333 -72.4500 217° Southwest 90 104 4,500  Level New York TRACON
Sun 03:25:21 PM 41.0167 -72.4833 236° Southwest 96 110 4,500  Level New York TRACON
Sun 03:26:21 PM 41.0000 -72.5167 236° Southwest 94 108 4,500  Level New York TRACON
Sun 03:27:21 PM 40.9833 -72.5333 217° Southwest 92 106 4,500 50 Level New York TRACON
Sun 03:28:21 PM 40.9833 -72.5667 270° West 87 100 4,600 50 Climbing New York TRACON
Sun 03:29:21 PM 40.9667 -72.5833 217° Southwest 91 105 4,600 -53 Level New York TRACON
Sun 03:30:15 PM 40.9500 -72.6167 237° Southwest 92 106 4,500 -53 Descending New York TRACON
Sun 03:31:15 PM 40.9333 -72.6500 237° Southwest 90 104 4,500 -141 Level New York TRACON
Sun 03:33:05 PM 40.9153 -72.6900 239° Southwest 90 104 4,100 -281 Descending Boston Center
Sun 03:34:06 PM 40.9019 -72.7192 239° Southwest 94 108 3,700 -492 Descending Boston Center
Sun 03:35:07 PM 40.8839 -72.7506 233° Southwest 93 107 3,100 -541 Descending Boston Center
Sun 03:36:08 PM 40.8719 -72.7786 241° Southwest 90 104 2,600 -443 Descending Boston Center
Sun 03:37:09 PM 40.8581 -72.8064 237° Southwest 90 104 2,200 -439 Descending Boston Center
Sun 03:38:11 PM 40.8422 -72.8350 234° Southwest 94 108 1,700 -293 Descending Boston Center
Sun 03:39:12 PM 40.8242 -72.8592 225° Southwest 94 108 1,600 -98 Descending Boston Center
Sun 03:40:13 PM 40.8097 -72.8844 233° Southwest 90 104 1,500 -246 Descending Boston Center
Sun 03:41:14 PM 40.8125 -72.8961 287° West 110 127 1,100 -295 Descending Boston Center
Sun 03:42:15 PM 40.8056 -72.8636 106° East 99 114 900 -244 Descending Boston Center
Sun 03:43:17 PM 40.8064 -72.8525 84° East 84 97 600 -341 Descending Boston Center
Sun 03:44:18 PM 40.8194 -72.8664 321° Northwest 69 79 200 -393 Descending Boston Center

Login

Don't have an account? Register now (free) for customized features, flight alerts, and more!